Flight Track Log - Related Links

Times and Time Zones

All times are in EDT time to prevent confusion due to time zone crossing. See the SWA4963 flight status page for this flight to view local times or setup timezone preferences in your user account.

Time Position Orientation Groundspeed Altitude Reporting Facility
EDT Latitude Longitude Course Direction KTS MPH feet Rate Location/Type
Tue 07:15:40 PM 33.5683 -86.7514 60° Northeast 149 171 1,400  Level Atlanta Center
Tue 07:16:34 PM 33.5922 -86.7022 60° Northeast 201 231 3,600 2,934 Climbing Atlanta Center
Tue 07:17:57 PM 33.6317 -86.6211 60° Northeast 228 262 8,100 2,685 Climbing Atlanta Center
Tue 07:18:57 PM 33.6231 -86.5286 96° East 234 269 10,000 950 Climbing Atlanta Center
Tue 07:19:57 PM 33.6064 -86.4208 100° East 290 334 10,000  Level Atlanta Center
Tue 07:20:57 PM 33.5897 -86.3031 100° East 324 373 10,000 2,400 Level Atlanta Center
Tue 07:22:57 PM 33.5756 -86.0458 94° East 368 423 17,200 3,300 Climbing Atlanta Center
Tue 07:23:57 PM 33.5817 -85.9239 87° East 387 445 19,900 2,867 Climbing Atlanta Center
Tue 07:25:57 PM 33.5942 -85.6275 87° East 414 476 25,800 2,700 Climbing Atlanta Center
Tue 07:26:57 PM 33.5981 -85.4728 88° East 440 506 28,000 2,200 Climbing Atlanta Center
Tue 07:27:57 PM 33.6019 -85.3158 88° East 460 529 30,200 2,200 Climbing Atlanta Center
Tue 07:28:57 PM 33.6075 -85.1586 88° East 465 535 32,400 1,800 Climbing Atlanta Center
Tue 07:29:57 PM 33.6131 -85.0167 87° East 474 545 33,800 1,100 Climbing Atlanta Center
Tue 07:30:57 PM 33.6161 -84.8519 89° East 479 551 34,600 600 Climbing Atlanta Center
Tue 07:31:57 PM 33.6214 -84.6850 88° East 484 557 35,000 200 Climbing Atlanta Center
Tue 07:32:57 PM 33.6264 -84.5278 88° East 484 557 35,000  Level Atlanta Center
Tue 07:33:57 PM 33.6269 -84.3656 90° East 479 551 35,000  Level Atlanta Center
Tue 07:34:57 PM 33.6375 -84.2058 85° East 479 551 35,000 800 Level Atlanta Center
Tue 07:35:57 PM 33.7044 -84.0689 60° Northeast 464 534 36,600 1,350 Climbing Atlanta Center
Tue 07:36:57 PM 33.7839 -83.9439 53° Northeast 464 534 37,700 1,200 Climbing Atlanta Center
Tue 07:37:57 PM 33.8631 -83.8186 53° Northeast 469 540 39,000 1,300 Climbing Atlanta Center
Tue 07:38:57 PM 33.9442 -83.6958 51° Northeast 469 540 40,300 1,000 Climbing Atlanta Center
Tue 07:39:57 PM 34.0250 -83.5650 53° Northeast 474 545 41,000 350 Climbing Atlanta Center
Tue 07:40:57 PM 34.1039 -83.4392 53° Northeast 474 545 41,000  Level Atlanta Center
Tue 07:41:57 PM 34.1844 -83.3131 52° Northeast 481 554 41,000  Level Atlanta Center
Tue 07:42:57 PM 34.2631 -83.1842 54° Northeast 481 554 41,000  Level Atlanta Center
Tue 07:43:57 PM 34.3494 -83.0450 53° Northeast 481 554 41,000  Level Atlanta Center
Tue 07:44:57 PM 34.4339 -82.9156 52° Northeast 486 559 41,000  Level Atlanta Center
Tue 07:45:57 PM 34.5119 -82.7858 54° Northeast 479 551 41,000  Level Atlanta Center
Tue 07:46:57 PM 34.5900 -82.6511 55° Northeast 484 557 41,000  Level Atlanta Center
Tue 07:47:57 PM 34.6636 -82.5386 51° Northeast 484 557 41,000  Level Atlanta Center
Tue 07:48:57 PM 34.7456 -82.4033 54° Northeast 484 557 41,000  Level Atlanta Center
Tue 07:49:57 PM 34.8250 -82.2753 53° Northeast 484 557 41,000  Level Atlanta Center
Tue 07:50:57 PM 34.9025 -82.1444 54° Northeast 478 550 41,000  Level Atlanta Center
Tue 07:51:57 PM 34.9900 -82.0056 52° Northeast 478 550 41,000  Level Atlanta Center
Tue 07:52:57 PM 35.0647 -81.8717 56° Northeast 473 544 41,000  Level Atlanta Center
Tue 07:53:57 PM 35.1375 -81.7325 57° Northeast 478 550 41,000  Level Atlanta Center
Tue 07:54:57 PM 35.2078 -81.5983 57° Northeast 478 550 41,000  Level Atlanta Center
Tue 07:55:57 PM 35.2803 -81.4642 56° Northeast 478 550 41,000  Level Atlanta Center
Tue 07:56:57 PM 35.3503 -81.3294 57° Northeast 478 550 41,000  Level Atlanta Center
Tue 07:57:57 PM 35.4183 -81.1922 59° Northeast 472 543 41,000  Level Atlanta Center
Tue 07:58:57 PM 35.4878 -81.0519 59° Northeast 477 549 41,000  Level Atlanta Center
Tue 07:59:57 PM 35.5617 -80.9192 56° Northeast 477 549 41,000  Level Atlanta Center
Tue 08:00:57 PM 35.6508 -80.8108 45° Northeast 452 520 41,000  Level Atlanta Center
Tue 08:01:57 PM 35.7778 -80.8033 North 424 488 41,000  Level Atlanta Center
Tue 08:02:57 PM 35.9028 -80.7958 North 442 509 41,000  Level Atlanta Center
Tue 08:03:57 PM 36.0278 -80.7856 North 447 514 41,000  Level Atlanta Center
Tue 08:04:57 PM 36.1547 -80.7781 North 455 524 41,000  Level Atlanta Center
Tue 08:05:57 PM 36.2817 -80.7703 North 455 524 41,000  Level Atlanta Center
Tue 08:06:57 PM 36.4108 -80.7600 North 461 531 41,000  Level Atlanta Center
Tue 08:07:57 PM 36.5378 -80.7519 North 456 525 41,000  Level Atlanta Center
Tue 08:08:57 PM 36.6522 -80.7422 North 461 531 41,000  Level Atlanta Center
Tue 08:10:34 PM 36.8614 -80.7319 North 444 511 41,000  Level Washington Center
Tue 08:11:32 PM 36.9889 -80.7250 North 444 511 41,000  Level Washington Center
Tue 08:12:32 PM 37.1053 -80.6911 13° North 452 520 41,000  Level Washington Center
Tue 08:13:33 PM 37.2014 -80.5906 40° Northeast 438 504 41,000  Level Washington Center
Tue 08:14:34 PM 37.2956 -80.4819 43° Northeast 444 511 41,000  Level Washington Center
Tue 08:15:34 PM 37.3939 -80.3731 41° Northeast 450 518 41,000  Level Washington Center
Tue 08:16:35 PM 37.4986 -80.2567 41° Northeast 455 524 41,000  Level Washington Center
Tue 08:17:32 PM 37.5967 -80.1447 42° Northeast 461 531 41,000  Level Washington Center
Tue 08:18:32 PM 37.6925 -80.0375 42° Northeast 461 531 41,000  Level Washington Center
Tue 08:19:33 PM 37.7883 -79.9278 42° Northeast 461 531 41,000 -295 Level Washington Center
Tue 08:20:34 PM 37.8839 -79.8200 42° Northeast 461 531 40,400 -807 Descending Washington Center
Tue 08:21:32 PM 37.9794 -79.7094 42° Northeast 461 531 39,400 -966 Descending Washington Center
Tue 08:22:32 PM 38.0644 -79.6086 43° Northeast 461 531 38,500 -893 Descending Washington Center
Tue 08:23:33 PM 38.1575 -79.5000 43° Northeast 456 525 37,600 -1,934 Descending Washington Center
Tue 08:24:33 PM 38.2467 -79.3911 44° Northeast 451 519 34,600 -2,479 Descending Washington Center
Tue 08:25:34 PM 38.2922 -79.2611 66° East 421 484 32,600 -1,884 Descending Washington Center
Tue 08:26:34 PM 38.3303 -79.1119 72° East 394 453 30,800 -1,475 Descending Washington Center
Tue 08:27:32 PM 38.3631 -78.9892 71° East 388 447 29,700 -1,068 Descending Washington Center
Tue 08:28:32 PM 38.3914 -78.8633 74° East 374 430 28,700 -992 Descending Washington Center
Tue 08:29:33 PM 38.4258 -78.7456 69° East 358 412 27,700 -984 Descending Washington Center
Tue 08:30:34 PM 38.4722 -78.6414 60° Northeast 347 399 26,700 -992 Descending Washington Center
Tue 08:31:34 PM 38.5250 -78.5347 58° Northeast 342 394 25,700 -843 Descending Washington Center
Tue 08:32:35 PM 38.5672 -78.4250 64° Northeast 342 394 25,000 -407 Descending Washington Center
Tue 08:33:32 PM 38.5783 -78.3033 83° East 337 388 24,900 -513 Descending Washington Center
Tue 08:34:32 PM 38.5956 -78.1842 79° East 337 388 24,000 -1,230 Descending Washington Center
Tue 08:35:34 PM 38.6128 -78.0681 79° East 337 388 22,400 -1,756 Descending Washington Center
Tue 08:36:35 PM 38.6275 -77.9622 80° East 332 382 20,400 -1,714 Descending Washington Center
Tue 08:37:33 PM 38.6400 -77.8508 82° East 332 382 19,000 -706 Descending Washington Center
Tue 08:38:34 PM 38.6483 -77.7394 84° East 320 368 19,000  Level Washington Center
Tue 08:39:34 PM 38.6564 -77.6308 85° East 314 361 19,000 -432 Level Washington Center
Tue 08:40:25 PM 38.6667 -77.5167 83° East 313 360 18,200 -1,459 Descending Potomac TRACON
Tue 08:41:25 PM 38.6667 -77.4167 90° East 306 352 16,300 -1,100 Descending Potomac TRACON
Tue 08:42:25 PM 38.6667 -77.3000 90° East 302 348 16,000 -700 Descending Potomac TRACON
Tue 08:43:25 PM 38.6833 -77.2000 78° East 289 333 14,900 -1,400 Descending Potomac TRACON
Tue 08:44:25 PM 38.6833 -77.1000 90° East 281 323 13,200 -1,526 Descending Potomac TRACON
Tue 08:45:19 PM 38.7000 -77.0000 78° East 273 314 12,000 -1,105 Descending Potomac TRACON
Tue 08:46:19 PM 38.7000 -76.9167 90° East 272 313 11,100 -1,000 Descending Potomac TRACON
Tue 08:47:19 PM 38.7000 -76.8167 90° East 258 297 10,000 -1,000 Descending Potomac TRACON
Tue 08:48:25 PM 38.7167 -76.7167 78° East 262 302 9,000 -950 Descending Potomac TRACON
Tue 08:49:19 PM 38.7500 -76.6500 57° Northeast 244 281 8,100 -1,211 Descending Potomac TRACON
Tue 08:50:19 PM 38.7833 -76.5667 63° Northeast 254 292 6,700 -1,300 Descending Potomac TRACON
Tue 08:51:19 PM 38.8333 -76.5333 27° Northeast 286 329 5,500 -1,100 Descending Potomac TRACON
Tue 08:52:19 PM 38.9167 -76.5667 343° North 277 319 4,500 -750 Descending Potomac TRACON
Tue 08:53:19 PM 38.9833 -76.6167 330° Northwest 272 313 4,000 -250 Descending Potomac TRACON
Tue 08:54:19 PM 39.0167 -76.6833 303° West 252 290 4,000  Level Potomac TRACON
Tue 08:55:19 PM 39.0500 -76.7667 297° West 255 293 4,000  Level Potomac TRACON
Tue 08:56:19 PM 39.0833 -76.8500 297° West 254 292 4,000  Level Potomac TRACON
Tue 08:57:20 PM 39.1000 -76.9333 284° West 257 296 4,000  Level Potomac TRACON
Tue 08:58:19 PM 39.1167 -77.0167 284° West 250 288 4,000  Level Potomac TRACON
Tue 08:59:20 PM 39.1500 -77.0833 303° West 222 255 4,000  Level Potomac TRACON
Tue 09:00:20 PM 39.2000 -77.0833 360° North 187 215 4,000 -368 Level Potomac TRACON
Tue 09:01:14 PM 39.2000 -77.0333 90° East 152 175 3,300 -632 Descending Potomac TRACON
Tue 09:02:14 PM 39.1833 -76.9833 113° Southeast 147 169 2,800 -400 Descending Potomac TRACON
Tue 09:03:14 PM 39.1833 -76.9333 90° East 147 169 2,500 -300 Descending Potomac TRACON

Login

Don't have an account? Register now (free) for customized features, flight alerts, and more!